Eagle River, Alaska
Current Conditions -  °F | °C
As of 9:36 AM on Sunday 23 Nov 2014 (Local Time) from PABV Reporting Station
Clear Clear  
Wind Chill: 19°   Ceiling: Unl
Heat Index: 25°   Visibility: 10mi
Dew Point: 23°   Wind: 5mph
Humidity: 93%   Direction: 190°S
Pressure: 29.43"   Gusts: NA
Location:  61.32°N, 149.58°W
Report Text: PABV 231836Z AUTO 19004KT 10SM CLR M04/M05 A2943 RMK AO1
Loading
Personal Weather Stations






























Interactive Weather Map New forecast layout! Learn more

10-Day Weather Forecast

Advertisements
Track Severe Weather on mobile